createdAt,value
2019-05-09T00:00:11.027Z,10.50
2019-05-09T00:02:38.907Z,10.40
2019-05-09T00:05:07.327Z,10.40
2019-05-09T00:07:34.474Z,10.40
2019-05-09T00:10:03.909Z,10.30
2019-05-09T00:12:30.924Z,10.30
2019-05-09T00:14:57.974Z,10.30
2019-05-09T00:17:25.412Z,10.30
2019-05-09T00:19:54.552Z,10.30
2019-05-09T00:22:23.903Z,10.30
2019-05-09T00:24:51.107Z,10.30
2019-05-09T00:27:18.232Z,10.40
2019-05-09T00:29:46.918Z,10.30
2019-05-09T00:32:45.766Z,10.30
2019-05-09T00:35:25.243Z,10.30
2019-05-09T00:37:54.066Z,10.20
2019-05-09T00:40:23.730Z,10.20
2019-05-09T00:42:50.507Z,10.20
2019-05-09T00:45:25.430Z,10.10
2019-05-09T00:47:53.913Z,10.10
2019-05-09T00:50:23.455Z,10.20
2019-05-09T00:52:50.471Z,10.20
2019-05-09T00:55:17.805Z,10.10
2019-05-09T00:57:44.916Z,10.10
2019-05-09T01:00:14.528Z,10.10
2019-05-09T01:02:43.555Z,10.10
2019-05-09T01:05:13.238Z,10.20
2019-05-09T01:07:40.508Z,10.10
2019-05-09T01:10:08.461Z,10.10
2019-05-09T01:12:35.595Z,10.10
2019-05-09T01:15:03.475Z,10.10
2019-05-09T01:17:30.748Z,10.10
2019-05-09T01:19:58.241Z,10.10
2019-05-09T01:22:26.043Z,10.10
2019-05-09T01:24:53.461Z,10.10
2019-05-09T01:27:23.348Z,10.10
2019-05-09T01:29:53.527Z,10.10
2019-05-09T01:32:43.335Z,10.10
2019-05-09T01:35:10.532Z,10.10
2019-05-09T01:37:37.678Z,10.10
2019-05-09T01:40:05.149Z,10.10
2019-05-09T01:42:33.755Z,10.10
2019-05-09T01:45:00.963Z,10.10
2019-05-09T01:47:28.328Z,10.10
2019-05-09T01:49:55.479Z,10.00
2019-05-09T01:52:23.205Z,10.00
2019-05-09T01:54:50.408Z,10.00
2019-05-09T01:57:17.944Z,10.00
2019-05-09T01:59:45.070Z,10.00
2019-05-09T02:02:14.201Z,10.10
2019-05-09T02:04:43.943Z,10.00
2019-05-09T02:07:12.684Z,10.00
2019-05-09T02:09:39.952Z,10.00
2019-05-09T02:12:06.959Z,9.90
2019-05-09T02:14:43.842Z,10.00
2019-05-09T02:17:19.227Z,10.00
2019-05-09T02:19:46.348Z,10.00
2019-05-09T02:22:31.510Z,10.00
2019-05-09T02:24:58.650Z,9.90
2019-05-09T02:27:25.636Z,9.90
2019-05-09T02:29:54.427Z,9.90
2019-05-09T02:32:24.009Z,9.90
2019-05-09T02:34:51.100Z,9.80
2019-05-09T02:37:18.801Z,9.80
2019-05-09T02:39:54.923Z,9.90
2019-05-09T02:42:22.456Z,9.90
2019-05-09T02:44:50.047Z,9.80
2019-05-09T02:47:22.612Z,9.90
2019-05-09T02:49:49.779Z,9.80
2019-05-09T02:52:19.843Z,9.90
2019-05-09T02:54:49.692Z,9.90
2019-05-09T02:57:18.218Z,9.90
2019-05-09T03:00:10.995Z,9.90
2019-05-09T03:03:04.085Z,9.90
2019-05-09T03:05:31.719Z,9.80
2019-05-09T03:07:58.837Z,9.90
2019-05-09T03:10:29.001Z,9.90
2019-05-09T03:12:55.430Z,9.90
2019-05-09T03:15:22.700Z,9.90
2019-05-09T03:17:50.076Z,9.90
2019-05-09T03:20:43.894Z,9.90
2019-05-09T03:23:11.312Z,9.90
2019-05-09T03:25:40.945Z,9.90
2019-05-09T03:28:29.929Z,9.90
2019-05-09T03:30:59.405Z,9.90
2019-05-09T03:33:29.620Z,9.80
2019-05-09T03:35:57.390Z,9.80
2019-05-09T03:38:24.867Z,9.80
2019-05-09T03:40:52.133Z,9.80
2019-05-09T03:43:19.239Z,9.80
2019-05-09T03:45:53.064Z,9.80
2019-05-09T03:48:28.357Z,9.70
2019-05-09T03:50:57.625Z,9.70
2019-05-09T03:53:24.972Z,9.70
2019-05-09T03:55:54.224Z,9.70
2019-05-09T03:58:21.571Z,9.60
2019-05-09T04:00:49.280Z,9.70
2019-05-09T04:03:19.811Z,9.70
2019-05-09T04:05:56.620Z,9.70
2019-05-09T04:08:18.276Z,9.60
2019-05-09T04:10:50.366Z,9.60
2019-05-09T04:13:18.049Z,9.60
2019-05-09T04:15:47.631Z,9.60
2019-05-09T04:18:17.532Z,9.60
2019-05-09T04:20:44.706Z,9.70
2019-05-09T04:23:12.255Z,9.70
2019-05-09T04:25:48.015Z,9.80
2019-05-09T04:28:17.635Z,9.90
2019-05-09T04:30:45.251Z,9.90
2019-05-09T04:33:12.223Z,10.00
2019-05-09T04:35:39.655Z,10.10
2019-05-09T04:38:07.436Z,10.20
2019-05-09T04:40:37.771Z,10.20
2019-05-09T04:43:12.023Z,10.30
2019-05-09T04:45:47.824Z,10.30
2019-05-09T04:48:33.156Z,10.20
2019-05-09T04:51:01.850Z,10.20
2019-05-09T04:53:29.528Z,10.20
2019-05-09T04:55:58.772Z,10.20
2019-05-09T04:58:27.398Z,10.20
2019-05-09T05:01:20.927Z,10.10
2019-05-09T05:03:49.918Z,10.10
2019-05-09T05:06:20.578Z,10.20
2019-05-09T05:08:47.914Z,10.20
2019-05-09T05:11:17.702Z,10.20
2019-05-09T05:13:44.699Z,10.30
2019-05-09T05:16:12.590Z,10.30
2019-05-09T05:18:40.042Z,10.30
2019-05-09T05:21:07.849Z,10.40
2019-05-09T05:23:42.537Z,10.40
2019-05-09T05:26:09.630Z,10.40
2019-05-09T05:28:38.180Z,10.40
2019-05-09T05:31:07.434Z,10.40
2019-05-09T05:33:43.948Z,10.40
2019-05-09T05:36:11.802Z,10.40
2019-05-09T05:38:38.956Z,10.50
2019-05-09T05:41:09.724Z,10.50
2019-05-09T05:43:43.388Z,10.60
2019-05-09T05:46:40.843Z,10.60
2019-05-09T05:49:08.214Z,10.60
2019-05-09T05:51:50.125Z,10.70
2019-05-09T05:54:19.115Z,10.70
2019-05-09T05:56:47.468Z,10.70
2019-05-09T05:59:17.700Z,10.70
2019-05-09T06:01:44.478Z,10.70
2019-05-09T06:04:11.813Z,10.70
2019-05-09T06:06:39.310Z,10.70
2019-05-09T06:09:08.297Z,10.70
2019-05-09T06:11:38.278Z,10.70
2019-05-09T06:14:10.996Z,10.70
2019-05-09T06:16:34.135Z,10.70
2019-05-09T06:19:01.371Z,10.70
2019-05-09T06:21:28.623Z,10.80
2019-05-09T06:23:55.731Z,10.80
2019-05-09T06:26:22.887Z,10.80
2019-05-09T06:28:50.058Z,10.80
2019-05-09T06:31:17.922Z,10.90
2019-05-09T06:33:47.621Z,10.90
2019-05-09T06:36:14.359Z,10.90
2019-05-09T06:38:41.962Z,10.90
2019-05-09T06:41:12.060Z,10.90
2019-05-09T06:43:39.823Z,10.80
2019-05-09T06:46:23.767Z,10.90
2019-05-09T06:48:50.894Z,10.90
2019-05-09T06:51:21.216Z,11.00
2019-05-09T06:53:48.825Z,11.00
2019-05-09T06:56:17.852Z,11.10
2019-05-09T06:58:45.382Z,11.10
2019-05-09T07:01:22.869Z,11.10
2019-05-09T07:03:53.094Z,11.20
2019-05-09T07:06:25.411Z,11.10
2019-05-09T07:08:58.467Z,11.00
2019-05-09T07:11:27.540Z,11.10
2019-05-09T07:13:54.944Z,11.10
2019-05-09T07:16:22.245Z,11.10
2019-05-09T07:18:49.511Z,11.10
2019-05-09T07:21:18.953Z,11.10
2019-05-09T07:23:47.978Z,11.30
2019-05-09T07:26:17.959Z,11.30
2019-05-09T07:28:48.245Z,11.30
2019-05-09T07:31:28.578Z,11.30
2019-05-09T07:34:09.196Z,11.40
2019-05-09T07:36:38.370Z,11.50
2019-05-09T07:39:08.857Z,11.50
2019-05-09T07:41:38.214Z,11.50
2019-05-09T07:44:07.431Z,11.50
2019-05-09T07:46:41.344Z,11.50
2019-05-09T07:49:11.864Z,11.50
2019-05-09T07:51:38.893Z,11.60
2019-05-09T07:54:20.666Z,11.70
2019-05-09T07:56:37.650Z,11.70
2019-05-09T07:59:04.397Z,11.70
2019-05-09T08:01:31.511Z,11.60
2019-05-09T08:03:59.687Z,11.70
2019-05-09T08:06:28.733Z,11.70
2019-05-09T08:08:58.075Z,11.60
2019-05-09T08:11:25.288Z,11.60
2019-05-09T08:13:53.282Z,11.60
2019-05-09T08:16:20.760Z,11.60
2019-05-09T08:19:07.723Z,11.70
2019-05-09T08:21:35.059Z,11.80
2019-05-09T08:24:02.051Z,11.90
2019-05-09T08:26:30.059Z,11.90
2019-05-09T08:28:58.388Z,12.10
2019-05-09T08:31:27.877Z,12.10
2019-05-09T08:33:55.053Z,12.20
2019-05-09T08:36:22.029Z,12.20
2019-05-09T08:38:50.223Z,12.30
2019-05-09T08:41:18.696Z,12.30
2019-05-09T08:43:48.163Z,12.20
2019-05-09T08:46:14.984Z,12.20
2019-05-09T08:48:42.880Z,12.10
2019-05-09T08:51:14.477Z,12.10
2019-05-09T08:53:41.651Z,12.20
2019-05-09T08:56:12.650Z,12.30
2019-05-09T08:58:38.547Z,12.30
2019-05-09T09:01:08.826Z,12.40
2019-05-09T09:03:37.596Z,12.50
2019-05-09T09:06:04.685Z,12.60
2019-05-09T09:08:31.661Z,12.70
2019-05-09T09:10:58.951Z,12.80
2019-05-09T09:13:28.249Z,12.90
2019-05-09T09:16:12.081Z,13.00
2019-05-09T09:18:24.743Z,13.10
2019-05-09T09:20:51.847Z,13.20
2019-05-09T09:23:18.829Z,13.50
2019-05-09T09:25:48.354Z,13.70
2019-05-09T09:28:14.815Z,13.70
2019-05-09T09:30:41.952Z,13.80
2019-05-09T09:33:13.373Z,13.90
2019-05-09T09:35:38.331Z,13.90
2019-05-09T09:38:05.599Z,14.10
2019-05-09T09:40:32.724Z,14.10
2019-05-09T09:43:00.088Z,14.20
2019-05-09T09:45:28.160Z,14.30
2019-05-09T09:47:55.493Z,14.20
2019-05-09T09:50:22.698Z,14.20
2019-05-09T09:52:49.801Z,14.20
2019-05-09T09:55:18.493Z,14.20
2019-05-09T09:57:48.264Z,14.20
2019-05-09T10:00:53.422Z,14.20
2019-05-09T10:03:20.542Z,14.30
2019-05-09T10:05:48.619Z,14.50
2019-05-09T10:08:18.110Z,14.60
2019-05-09T10:10:48.373Z,14.60
2019-05-09T10:13:14.825Z,14.40
2019-05-09T10:16:13.139Z,14.40
2019-05-09T10:18:47.521Z,14.30
2019-05-09T10:21:18.682Z,14.50
2019-05-09T10:23:48.154Z,14.70
2019-05-09T10:26:17.652Z,14.80
2019-05-09T10:28:45.536Z,14.70
2019-05-09T10:31:12.872Z,14.80
2019-05-09T10:33:40.015Z,14.90
2019-05-09T10:36:08.501Z,14.90
2019-05-09T10:38:38.367Z,15.20
2019-05-09T10:41:05.183Z,15.40
2019-05-09T10:43:50.994Z,15.40
2019-05-09T10:46:52.119Z,15.20
2019-05-09T10:49:08.287Z,15.10
2019-05-09T10:51:35.219Z,15.20
2019-05-09T10:54:02.379Z,15.40
2019-05-09T10:56:29.564Z,15.10
2019-05-09T10:58:58.527Z,14.90
2019-05-09T11:01:29.190Z,14.90
2019-05-09T11:03:55.556Z,14.90
2019-05-09T11:06:22.747Z,14.90
2019-05-09T11:08:50.137Z,14.90
2019-05-09T11:11:18.304Z,14.90
2019-05-09T11:13:48.136Z,14.80
2019-05-09T11:16:14.743Z,14.80
2019-05-09T11:18:41.898Z,14.70
2019-05-09T11:21:09.046Z,14.60
2019-05-09T11:23:39.175Z,14.60
2019-05-09T11:26:07.125Z,14.80
2019-05-09T11:28:34.351Z,15.20
2019-05-09T11:31:01.371Z,15.30
2019-05-09T11:33:29.554Z,15.20
2019-05-09T11:35:58.110Z,15.10
2019-05-09T11:38:32.579Z,15.10
2019-05-09T11:40:54.747Z,15.10
2019-05-09T11:43:22.083Z,15.10
2019-05-09T11:45:49.863Z,15.20
2019-05-09T11:48:18.722Z,15.50
2019-05-09T11:50:47.741Z,15.70
2019-05-09T11:53:17.545Z,15.90
2019-05-09T11:55:44.530Z,16.20
2019-05-09T11:58:11.643Z,16.40
2019-05-09T12:00:38.871Z,16.60
2019-05-09T12:03:08.927Z,16.60
2019-05-09T12:05:37.774Z,16.60
2019-05-09T12:08:04.446Z,16.60
2019-05-09T12:10:31.511Z,16.60
2019-05-09T12:12:59.113Z,16.70
2019-05-09T12:15:29.054Z,16.70
2019-05-09T12:18:01.594Z,16.70
2019-05-09T12:20:27.603Z,17.00
2019-05-09T12:22:54.722Z,17.30
2019-05-09T12:25:22.218Z,17.60
2019-05-09T12:27:49.274Z,17.50
2019-05-09T12:30:18.895Z,17.20
2019-05-09T12:32:46.202Z,17.30
2019-05-09T12:35:13.381Z,17.30
2019-05-09T12:37:40.634Z,17.20
2019-05-09T12:40:08.464Z,16.90
2019-05-09T12:42:35.648Z,17.00
2019-05-09T12:45:03.603Z,17.30
2019-05-09T12:47:30.681Z,17.40
2019-05-09T12:50:02.129Z,17.30
2019-05-09T12:52:28.754Z,17.20
2019-05-09T12:54:58.247Z,17.00
2019-05-09T12:57:25.110Z,16.90
2019-05-09T12:59:52.969Z,16.80
2019-05-09T13:02:20.463Z,16.80
2019-05-09T13:04:47.782Z,17.00
2019-05-09T13:07:15.207Z,16.90
2019-05-09T13:09:42.294Z,17.10
2019-05-09T13:12:09.643Z,17.20
2019-05-09T13:14:37.977Z,17.50
2019-05-09T13:17:28.036Z,17.80
2019-05-09T13:19:58.377Z,17.70
2019-05-09T13:22:24.819Z,17.60
2019-05-09T13:24:52.082Z,17.40
2019-05-09T13:27:19.466Z,17.40
2019-05-09T13:29:49.251Z,17.50
2019-05-09T13:32:18.060Z,17.80
2019-05-09T13:34:45.031Z,18.10
2019-05-09T13:37:13.022Z,18.40
2019-05-09T13:39:41.198Z,18.50
2019-05-09T13:42:08.454Z,18.30
2019-05-09T13:44:40.625Z,18.10
2019-05-09T13:47:04.775Z,18.00
2019-05-09T13:49:32.107Z,18.30
2019-05-09T13:52:04.439Z,18.60
2019-05-09T13:54:28.522Z,18.40
2019-05-09T13:57:00.391Z,18.10
2019-05-09T13:59:24.829Z,17.90
2019-05-09T14:01:51.832Z,17.60
2019-05-09T14:04:18.802Z,17.50
2019-05-09T14:06:45.893Z,17.30
2019-05-09T14:09:12.948Z,17.30
2019-05-09T14:11:39.966Z,17.20
2019-05-09T14:14:07.437Z,17.20
2019-05-09T14:16:34.867Z,17.10
2019-05-09T14:19:24.773Z,17.10
2019-05-09T14:21:31.179Z,17.10
2019-05-09T14:24:10.752Z,17.00
2019-05-09T14:26:27.811Z,17.00
2019-05-09T14:28:55.059Z,17.00
2019-05-09T14:31:22.515Z,17.10
2019-05-09T14:33:49.875Z,17.00
2019-05-09T14:36:17.395Z,17.00
2019-05-09T14:38:44.413Z,17.00
2019-05-09T14:41:11.841Z,17.70
2019-05-09T14:43:39.595Z,17.80
2019-05-09T14:46:08.149Z,17.90
2019-05-09T14:48:35.411Z,17.90
2019-05-09T14:51:02.414Z,17.90
2019-05-09T14:53:29.429Z,17.80
2019-05-09T14:55:58.797Z,17.90
2019-05-09T14:58:25.755Z,17.80
2019-05-09T15:00:52.914Z,17.90
2019-05-09T15:03:20.286Z,17.90
2019-05-09T15:05:48.112Z,18.40
2019-05-09T15:08:17.935Z,19.30
2019-05-09T15:10:44.646Z,20.10
2019-05-09T15:13:11.899Z,20.10
2019-05-09T15:15:39.196Z,19.80
2019-05-09T15:18:08.085Z,19.90
2019-05-09T15:20:35.395Z,20.50
2019-05-09T15:23:02.514Z,21.10
2019-05-09T15:25:29.944Z,21.90
2019-05-09T15:27:58.014Z,22.40
2019-05-09T15:30:28.425Z,22.70
2019-05-09T15:32:54.700Z,22.50
2019-05-09T15:35:21.683Z,21.90
2019-05-09T15:37:48.651Z,21.90
2019-05-09T15:40:17.712Z,22.00
2019-05-09T15:42:47.719Z,21.90
2019-05-09T15:45:15.194Z,21.70
2019-05-09T15:47:42.160Z,21.70
2019-05-09T15:50:19.166Z,21.10
2019-05-09T15:52:39.121Z,20.80
2019-05-09T15:55:09.375Z,20.20
2019-05-09T15:57:37.698Z,19.90
2019-05-09T16:00:08.064Z,19.50
2019-05-09T16:02:34.151Z,19.60
2019-05-09T16:05:01.249Z,19.20
2019-05-09T16:07:28.601Z,19.10
2019-05-09T16:09:58.031Z,19.20
2019-05-09T16:12:27.812Z,19.00
2019-05-09T16:14:55.455Z,19.00
2019-05-09T16:17:22.571Z,19.00
2019-05-09T16:19:51.218Z,18.90
2019-05-09T16:22:19.116Z,18.70
2019-05-09T16:24:48.353Z,18.90
2019-05-09T16:27:15.367Z,18.80
2019-05-09T16:29:42.358Z,18.80
2019-05-09T16:32:09.465Z,18.70
2019-05-09T16:34:38.692Z,18.50
2019-05-09T16:37:07.581Z,18.50
2019-05-09T16:39:34.655Z,18.50
2019-05-09T16:42:01.657Z,18.30
2019-05-09T16:44:29.142Z,18.00
2019-05-09T16:46:57.710Z,17.90
2019-05-09T16:49:26.690Z,17.80
2019-05-09T16:51:54.059Z,17.70
2019-05-09T16:54:24.075Z,17.60
2019-05-09T16:56:52.651Z,17.60
2019-05-09T16:59:19.831Z,17.50
2019-05-09T17:01:50.141Z,17.40
2019-05-09T17:04:18.863Z,17.30
2019-05-09T17:06:45.295Z,17.20
2019-05-09T17:09:12.677Z,17.20
2019-05-09T17:11:39.963Z,17.30
2019-05-09T17:14:08.277Z,17.50
2019-05-09T17:16:37.679Z,17.60
2019-05-09T17:19:04.918Z,17.40
2019-05-09T17:21:44.022Z,17.40
2019-05-09T17:26:40.277Z,17.30
2019-05-09T17:29:07.484Z,17.10
2019-05-09T17:31:35.496Z,17.00
2019-05-09T17:34:02.659Z,16.90
2019-05-09T17:36:29.644Z,16.70
2019-05-09T17:38:56.746Z,16.50
2019-05-09T17:41:23.971Z,16.40
2019-05-09T17:43:51.363Z,16.30
2019-05-09T17:46:19.116Z,16.30
2019-05-09T17:48:47.950Z,16.50
2019-05-09T17:51:18.656Z,16.50
2019-05-09T17:53:51.480Z,16.60
2019-05-09T17:56:15.131Z,16.40
2019-05-09T17:58:42.111Z,16.30
2019-05-09T18:01:09.491Z,16.20
2019-05-09T18:03:38.464Z,16.00
2019-05-09T18:06:08.246Z,15.80
2019-05-09T18:08:37.582Z,15.70
2019-05-09T18:11:04.527Z,15.60
2019-05-09T18:13:32.362Z,15.60
2019-05-09T18:16:00.120Z,15.50
2019-05-09T18:18:28.450Z,15.40
2019-05-09T18:20:57.843Z,15.40
2019-05-09T18:23:24.736Z,15.40
2019-05-09T18:25:51.837Z,15.40
2019-05-09T18:28:18.892Z,15.30
2019-05-09T18:30:47.806Z,15.30
2019-05-09T18:33:26.924Z,15.30
2019-05-09T18:35:54.120Z,15.20
2019-05-09T18:38:28.077Z,15.20
2019-05-09T18:40:57.919Z,15.10
2019-05-09T18:43:27.270Z,15.00
2019-05-09T18:45:54.247Z,15.10
2019-05-09T18:48:21.505Z,15.10
2019-05-09T18:50:48.857Z,15.00
2019-05-09T18:53:16.014Z,15.00
2019-05-09T18:55:43.030Z,15.00
2019-05-09T18:58:10.183Z,15.00
2019-05-09T19:00:37.772Z,14.90
2019-05-09T19:03:05.096Z,14.90
2019-05-09T19:05:32.887Z,14.80
2019-05-09T19:08:00.529Z,14.70
2019-05-09T19:10:28.450Z,14.70
2019-05-09T19:12:55.851Z,14.70
2019-05-09T19:15:41.412Z,14.70
2019-05-09T19:18:15.946Z,14.70
2019-05-09T19:20:56.723Z,14.70
2019-05-09T19:23:24.595Z,14.50
2019-05-09T19:25:52.764Z,14.50
2019-05-09T19:28:24.049Z,14.50
2019-05-09T19:30:50.763Z,14.40
2019-05-09T19:33:18.839Z,14.30
2019-05-09T19:35:46.325Z,14.20
2019-05-09T19:38:14.218Z,14.30
2019-05-09T19:40:41.790Z,14.20
2019-05-09T19:43:10.209Z,14.20
2019-05-09T19:45:37.995Z,14.10
2019-05-09T19:48:05.910Z,14.10
2019-05-09T19:50:35.431Z,14.00
2019-05-09T19:53:03.301Z,13.90
2019-05-09T19:55:31.143Z,13.80
2019-05-09T19:58:00.094Z,13.70
2019-05-09T20:00:27.351Z,13.80
2019-05-09T20:02:54.830Z,13.90
2019-05-09T20:05:23.355Z,13.90
2019-05-09T20:07:51.396Z,14.00
2019-05-09T20:10:38.346Z,14.00
2019-05-09T20:13:12.098Z,14.10
2019-05-09T20:15:39.753Z,14.20
2019-05-09T20:18:08.255Z,14.20
2019-05-09T20:20:35.723Z,14.20
2019-05-09T20:23:03.412Z,14.30
2019-05-09T20:25:31.586Z,14.20
2019-05-09T20:27:59.238Z,14.10
2019-05-09T20:30:27.270Z,14.10
2019-05-09T20:32:55.067Z,14.20
2019-05-09T20:35:22.059Z,14.10
2019-05-09T20:37:49.230Z,14.10
2019-05-09T20:40:16.579Z,14.10
2019-05-09T20:42:43.907Z,14.10
2019-05-09T20:45:12.016Z,14.10
2019-05-09T20:47:39.847Z,14.10
2019-05-09T20:50:07.940Z,14.10
2019-05-09T20:52:35.160Z,14.10
2019-05-09T20:55:02.560Z,14.00
2019-05-09T20:57:29.568Z,14.00
2019-05-09T20:59:56.577Z,14.00
2019-05-09T21:02:24.766Z,14.00
2019-05-09T21:04:51.985Z,14.00
2019-05-09T21:07:19.185Z,14.00
2019-05-09T21:09:46.178Z,13.90
2019-05-09T21:12:13.227Z,13.80
2019-05-09T21:14:40.460Z,13.80
2019-05-09T21:17:08.097Z,13.80
2019-05-09T21:19:35.148Z,13.80
2019-05-09T21:22:02.420Z,13.80
2019-05-09T21:24:30.955Z,13.80
2019-05-09T21:26:58.005Z,13.70
2019-05-09T21:29:25.121Z,13.70
2019-05-09T21:31:52.352Z,13.80
2019-05-09T21:34:19.520Z,13.80
2019-05-09T21:36:46.712Z,13.80
2019-05-09T21:39:13.888Z,13.80
2019-05-09T21:41:41.772Z,13.80
2019-05-09T21:44:08.915Z,13.80
2019-05-09T21:46:36.164Z,13.80
2019-05-09T21:49:03.487Z,13.80
2019-05-09T21:51:30.571Z,13.70
2019-05-09T21:53:58.118Z,13.70
2019-05-09T21:56:25.559Z,13.70
2019-05-09T21:58:52.987Z,13.60
2019-05-09T22:01:20.562Z,13.60
2019-05-09T22:03:49.366Z,13.50
2019-05-09T22:06:16.512Z,13.50
2019-05-09T22:08:43.663Z,13.50
2019-05-09T22:11:11.376Z,13.40
2019-05-09T22:13:38.328Z,13.30
2019-05-09T22:16:05.791Z,13.40
2019-05-09T22:18:32.931Z,13.40
2019-05-09T22:21:00.220Z,13.40
2019-05-09T22:23:27.525Z,13.40
2019-05-09T22:25:54.719Z,13.40
2019-05-09T22:28:23.314Z,13.40
2019-05-09T22:30:50.645Z,13.30
2019-05-09T22:33:17.707Z,13.30
2019-05-09T22:35:44.834Z,13.30
2019-05-09T22:38:12.082Z,13.20
2019-05-09T22:40:42.155Z,13.10
2019-05-09T22:43:09.150Z,13.00
2019-05-09T22:45:36.479Z,13.10
2019-05-09T22:48:03.804Z,13.00
2019-05-09T22:50:30.935Z,13.00
2019-05-09T22:52:58.337Z,13.00
2019-05-09T22:55:25.449Z,13.00
2019-05-09T22:57:52.430Z,12.90
2019-05-09T23:00:19.840Z,12.90
2019-05-09T23:02:46.782Z,13.00
2019-05-09T23:05:13.924Z,12.90
2019-05-09T23:07:41.093Z,12.90
2019-05-09T23:10:09.803Z,12.90
2019-05-09T23:12:36.804Z,12.90
2019-05-09T23:15:05.056Z,12.90
2019-05-09T23:17:32.173Z,12.90
2019-05-09T23:19:59.247Z,12.80
2019-05-09T23:22:29.709Z,12.90
2019-05-09T23:24:57.219Z,12.80
2019-05-09T23:27:24.655Z,12.90
2019-05-09T23:29:51.711Z,12.80
2019-05-09T23:32:32.779Z,12.80
2019-05-09T23:35:00.109Z,12.80
2019-05-09T23:37:27.157Z,12.90
2019-05-09T23:39:54.672Z,12.80
2019-05-09T23:42:35.485Z,12.80
2019-05-09T23:45:03.177Z,12.80
2019-05-09T23:47:30.309Z,12.90
2019-05-09T23:49:57.566Z,13.10
2019-05-09T23:52:24.806Z,13.00
2019-05-09T23:55:10.705Z,13.10
2019-05-09T23:57:56.065Z,13.10
